createdAt,value
2018-04-29T00:00:50.057Z,0
2018-04-29T00:01:50.728Z,0
2018-04-29T00:02:51.401Z,0
2018-04-29T00:03:52.072Z,0
2018-04-29T00:04:52.750Z,0
2018-04-29T00:05:53.421Z,0
2018-04-29T00:06:54.098Z,0
2018-04-29T00:07:54.770Z,0
2018-04-29T00:08:55.442Z,0
2018-04-29T00:09:56.114Z,0
2018-04-29T00:10:56.786Z,0
2018-04-29T00:11:57.463Z,0
2018-04-29T00:12:58.139Z,0
2018-04-29T00:13:58.814Z,0
2018-04-29T00:14:59.489Z,0
2018-04-29T00:16:00.165Z,0
2018-04-29T00:17:00.846Z,0
2018-04-29T00:18:01.514Z,0
2018-04-29T00:19:02.201Z,0
2018-04-29T00:20:02.874Z,0
2018-04-29T00:21:03.544Z,0
2018-04-29T00:22:04.217Z,0
2018-04-29T00:23:04.889Z,0
2018-04-29T00:24:05.562Z,0
2018-04-29T00:25:06.237Z,0
2018-04-29T00:26:06.909Z,0
2018-04-29T00:27:07.583Z,0
2018-04-29T00:28:08.253Z,0
2018-04-29T00:29:08.935Z,0
2018-04-29T00:30:09.607Z,0
2018-04-29T00:31:10.278Z,0
2018-04-29T00:32:10.952Z,0
2018-04-29T00:33:11.621Z,0
2018-04-29T00:34:12.300Z,0
2018-04-29T00:35:12.974Z,0
2018-04-29T00:36:13.724Z,0
2018-04-29T00:37:14.319Z,0
2018-04-29T00:38:14.991Z,0
2018-04-29T00:39:15.671Z,0
2018-04-29T00:40:16.349Z,0
2018-04-29T00:41:17.019Z,0
2018-04-29T00:42:17.695Z,0
2018-04-29T00:43:18.367Z,0
2018-04-29T00:44:19.040Z,0
2018-04-29T00:45:19.717Z,0
2018-04-29T00:46:20.388Z,0
2018-04-29T00:47:21.062Z,0
2018-04-29T00:48:21.738Z,0
2018-04-29T00:49:22.413Z,0
2018-04-29T00:50:23.085Z,0
2018-04-29T00:51:23.765Z,0
2018-04-29T00:52:24.440Z,0
2018-04-29T00:53:25.118Z,0
2018-04-29T00:54:25.790Z,0
2018-04-29T00:55:26.464Z,0
2018-04-29T00:56:27.135Z,0
2018-04-29T00:57:27.808Z,0
2018-04-29T00:58:28.482Z,0
2018-04-29T00:59:29.154Z,0
2018-04-29T01:00:29.836Z,0
2018-04-29T01:01:30.513Z,0
2018-04-29T01:02:31.185Z,0
2018-04-29T01:03:31.879Z,0
2018-04-29T01:04:32.555Z,0
2018-04-29T01:05:33.223Z,0
2018-04-29T01:06:33.893Z,0
2018-04-29T01:07:34.575Z,0
2018-04-29T01:08:35.245Z,0
2018-04-29T01:09:35.919Z,0
2018-04-29T01:10:36.605Z,0
2018-04-29T01:11:37.273Z,0
2018-04-29T01:12:37.946Z,0
2018-04-29T01:13:38.619Z,0
2018-04-29T01:14:39.295Z,0
2018-04-29T01:15:39.974Z,0
2018-04-29T01:16:40.647Z,0
2018-04-29T01:17:41.319Z,0
2018-04-29T01:18:41.990Z,0
2018-04-29T01:19:42.698Z,0
2018-04-29T01:20:43.338Z,0
2018-04-29T01:21:44.012Z,0
2018-04-29T01:22:44.681Z,0
2018-04-29T01:23:45.354Z,0
2018-04-29T01:24:46.026Z,0
2018-04-29T01:25:46.699Z,0
2018-04-29T01:26:47.376Z,0
2018-04-29T01:27:48.044Z,0
2018-04-29T01:28:48.717Z,0
2018-04-29T01:29:49.388Z,0
2018-04-29T01:30:50.064Z,0
2018-04-29T01:31:50.740Z,0
2018-04-29T01:32:51.407Z,0
2018-04-29T01:33:52.080Z,0
2018-04-29T01:34:52.756Z,0
2018-04-29T01:35:53.428Z,0
2018-04-29T01:36:54.107Z,0
2018-04-29T01:37:54.781Z,0
2018-04-29T01:38:55.458Z,0
2018-04-29T01:39:56.130Z,0
2018-04-29T01:40:56.803Z,0
2018-04-29T01:41:57.479Z,0
2018-04-29T01:42:58.152Z,0
2018-04-29T01:43:58.826Z,0
2018-04-29T01:44:59.497Z,0
2018-04-29T01:46:00.168Z,0
2018-04-29T01:47:00.839Z,0
2018-04-29T01:48:01.511Z,0
2018-04-29T01:49:02.190Z,0
2018-04-29T01:50:02.865Z,0
2018-04-29T01:51:03.539Z,0
2018-04-29T01:52:04.212Z,0
2018-04-29T01:53:04.881Z,0
2018-04-29T01:54:05.556Z,0
2018-04-29T01:55:06.228Z,0
2018-04-29T01:56:06.900Z,0
2018-04-29T01:57:07.567Z,0
2018-04-29T01:58:08.245Z,0
2018-04-29T01:59:08.917Z,0
2018-04-29T02:00:09.600Z,0
2018-04-29T02:01:10.278Z,0
2018-04-29T02:02:10.954Z,0
2018-04-29T02:03:11.630Z,0
2018-04-29T02:04:12.297Z,0
2018-04-29T02:05:12.972Z,0
2018-04-29T02:06:13.638Z,0
2018-04-29T02:07:14.313Z,0
2018-04-29T02:08:14.985Z,0
2018-04-29T02:09:15.651Z,0
2018-04-29T02:10:16.324Z,0
2018-04-29T02:11:16.998Z,0
2018-04-29T02:12:17.666Z,0
2018-04-29T02:13:18.340Z,0
2018-04-29T02:14:19.013Z,0
2018-04-29T02:15:19.683Z,0
2018-04-29T02:16:20.355Z,0
2018-04-29T02:17:21.027Z,0
2018-04-29T02:18:21.700Z,0
2018-04-29T02:19:22.377Z,0
2018-04-29T02:20:23.041Z,0
2018-04-29T02:21:23.714Z,0
2018-04-29T02:22:24.388Z,0
2018-04-29T02:23:25.058Z,0
2018-04-29T02:24:25.730Z,0
2018-04-29T02:25:26.405Z,0
2018-04-29T02:26:27.079Z,0
2018-04-29T02:27:27.746Z,0
2018-04-29T02:28:28.417Z,0
2018-04-29T02:29:29.092Z,0
2018-04-29T02:30:29.763Z,0
2018-04-29T02:31:30.503Z,0
2018-04-29T02:32:31.122Z,0
2018-04-29T02:33:31.792Z,0
2018-04-29T02:34:32.470Z,0
2018-04-29T02:35:33.143Z,0
2018-04-29T02:36:33.821Z,0
2018-04-29T02:37:34.495Z,0
2018-04-29T02:38:35.167Z,0
2018-04-29T02:39:35.839Z,0
2018-04-29T02:40:36.516Z,0
2018-04-29T02:41:37.183Z,0
2018-04-29T02:42:37.856Z,0
2018-04-29T02:43:38.531Z,0
2018-04-29T02:44:39.198Z,0
2018-04-29T02:45:39.872Z,0
2018-04-29T02:46:40.547Z,0
2018-04-29T02:47:41.219Z,0
2018-04-29T02:48:41.890Z,0
2018-04-29T02:49:42.562Z,0
2018-04-29T02:50:43.301Z,0
2018-04-29T02:51:43.907Z,0
2018-04-29T02:52:44.580Z,0
2018-04-29T02:53:45.257Z,0
2018-04-29T02:54:45.933Z,0
2018-04-29T02:55:46.600Z,0
2018-04-29T02:56:47.274Z,0
2018-04-29T02:57:47.948Z,0
2018-04-29T02:58:48.618Z,0
2018-04-29T02:59:49.289Z,0
2018-04-29T03:00:49.966Z,0
2018-04-29T03:01:50.637Z,0
2018-04-29T03:02:51.321Z,0
2018-04-29T03:03:51.986Z,0
2018-04-29T03:04:52.657Z,0
2018-04-29T03:05:53.331Z,0
2018-04-29T03:06:54.005Z,0
2018-04-29T03:07:54.674Z,0
2018-04-29T03:08:55.354Z,0
2018-04-29T03:09:56.025Z,0
2018-04-29T03:10:56.697Z,0
2018-04-29T03:11:57.364Z,0
2018-04-29T03:12:58.037Z,0
2018-04-29T03:13:58.707Z,0
2018-04-29T03:14:59.388Z,0
2018-04-29T03:16:00.060Z,0
2018-04-29T03:17:00.730Z,0
2018-04-29T03:18:01.403Z,0
2018-04-29T03:19:02.089Z,0
2018-04-29T03:20:02.752Z,0
2018-04-29T03:21:03.421Z,0
2018-04-29T03:22:04.094Z,0
2018-04-29T03:23:04.773Z,0
2018-04-29T03:24:05.443Z,0
2018-04-29T03:25:06.120Z,0
2018-04-29T03:26:06.794Z,0
2018-04-29T03:27:07.467Z,0
2018-04-29T03:28:08.138Z,0
2018-04-29T03:29:08.808Z,0
2018-04-29T03:30:09.479Z,0
2018-04-29T03:31:10.156Z,0
2018-04-29T03:32:10.829Z,0
2018-04-29T03:33:11.497Z,0
2018-04-29T03:34:12.166Z,0
2018-04-29T03:35:12.839Z,0
2018-04-29T03:36:13.513Z,0
2018-04-29T03:37:14.182Z,0
2018-04-29T03:38:14.852Z,0
2018-04-29T03:39:15.522Z,0
2018-04-29T03:40:16.197Z,0
2018-04-29T03:41:16.868Z,0
2018-04-29T03:42:17.541Z,0
2018-04-29T03:43:18.214Z,0
2018-04-29T03:44:18.888Z,0
2018-04-29T03:45:19.558Z,0
2018-04-29T03:46:20.232Z,0
2018-04-29T03:47:20.905Z,0
2018-04-29T03:48:21.578Z,0
2018-04-29T03:49:22.255Z,0
2018-04-29T03:50:22.928Z,0
2018-04-29T03:51:23.604Z,0
2018-04-29T03:52:24.274Z,0
2018-04-29T03:53:24.950Z,0
2018-04-29T03:54:25.619Z,0
2018-04-29T03:55:26.296Z,0
2018-04-29T03:56:26.970Z,0
2018-04-29T03:57:27.645Z,0
2018-04-29T03:58:28.321Z,0
2018-04-29T03:59:28.992Z,0
2018-04-29T04:00:29.666Z,0
2018-04-29T04:01:30.340Z,0
2018-04-29T04:02:31.044Z,5
2018-04-29T04:03:31.698Z,5
2018-04-29T04:04:32.371Z,5
2018-04-29T04:05:33.051Z,5
2018-04-29T04:06:33.730Z,5
2018-04-29T04:07:34.412Z,5
2018-04-29T04:08:35.087Z,5
2018-04-29T04:09:35.764Z,10
2018-04-29T04:10:36.443Z,10
2018-04-29T04:11:37.121Z,10
2018-04-29T04:12:37.800Z,10
2018-04-29T04:13:38.476Z,10
2018-04-29T04:14:39.155Z,10
2018-04-29T04:15:39.831Z,10
2018-04-29T04:16:40.508Z,10
2018-04-29T04:17:41.187Z,15
2018-04-29T04:18:41.872Z,15
2018-04-29T04:19:42.534Z,15
2018-04-29T04:20:43.210Z,15
2018-04-29T04:21:43.890Z,15
2018-04-29T04:22:44.563Z,15
2018-04-29T04:23:45.265Z,20
2018-04-29T04:24:45.913Z,20
2018-04-29T04:25:46.598Z,20
2018-04-29T04:26:47.271Z,20
2018-04-29T04:27:47.944Z,20
2018-04-29T04:28:48.623Z,25
2018-04-29T04:29:49.299Z,25
2018-04-29T04:30:49.978Z,25
2018-04-29T04:31:50.653Z,25
2018-04-29T04:32:51.338Z,25
2018-04-29T04:33:52.012Z,30
2018-04-29T04:34:52.686Z,30
2018-04-29T04:35:53.366Z,30
2018-04-29T04:36:54.042Z,30
2018-04-29T04:37:54.717Z,35
2018-04-29T04:38:55.393Z,35
2018-04-29T04:39:56.068Z,35
2018-04-29T04:40:56.743Z,35
2018-04-29T04:41:57.419Z,35
2018-04-29T04:42:58.092Z,35
2018-04-29T04:43:58.770Z,40
2018-04-29T04:44:59.449Z,40
2018-04-29T04:46:00.124Z,40
2018-04-29T04:47:00.804Z,40
2018-04-29T04:48:01.485Z,45
2018-04-29T04:49:02.154Z,45
2018-04-29T04:50:02.833Z,45
2018-04-29T04:51:03.506Z,45
2018-04-29T04:52:04.180Z,50
2018-04-29T04:53:04.859Z,50
2018-04-29T04:54:05.535Z,50
2018-04-29T04:55:06.213Z,50
2018-04-29T04:56:06.888Z,45
2018-04-29T04:57:07.563Z,45
2018-04-29T04:58:08.261Z,45
2018-04-29T04:59:08.911Z,45
2018-04-29T05:00:09.588Z,50
2018-04-29T05:01:10.263Z,50
2018-04-29T05:02:10.939Z,50
2018-04-29T05:03:11.612Z,55
2018-04-29T05:04:12.289Z,55
2018-04-29T05:05:12.969Z,55
2018-04-29T05:06:13.643Z,55
2018-04-29T05:07:14.352Z,55
2018-04-29T05:08:15.003Z,55
2018-04-29T05:09:15.673Z,55
2018-04-29T05:10:16.350Z,55
2018-04-29T05:11:17.025Z,55
2018-04-29T05:12:17.705Z,55
2018-04-29T05:13:18.381Z,55
2018-04-29T05:14:19.063Z,55
2018-04-29T05:15:19.740Z,55
2018-04-29T05:16:20.418Z,55
2018-04-29T05:17:21.103Z,60
2018-04-29T05:18:21.776Z,60
2018-04-29T05:19:22.461Z,60
2018-04-29T05:20:23.135Z,60
2018-04-29T05:21:23.816Z,65
2018-04-29T05:22:24.485Z,65
2018-04-29T05:23:25.166Z,65
2018-04-29T05:24:25.844Z,70
2018-04-29T05:25:26.515Z,70
2018-04-29T05:26:27.193Z,70
2018-04-29T05:27:27.869Z,70
2018-04-29T05:28:28.546Z,70
2018-04-29T05:29:29.223Z,70
2018-04-29T05:30:29.901Z,75
2018-04-29T05:31:30.576Z,80
2018-04-29T05:32:31.254Z,80
2018-04-29T05:33:31.931Z,85
2018-04-29T05:34:32.610Z,85
2018-04-29T05:35:33.287Z,90
2018-04-29T05:36:33.970Z,90
2018-04-29T05:37:34.645Z,90
2018-04-29T05:38:35.324Z,90
2018-04-29T05:39:36.001Z,90
2018-04-29T05:40:36.677Z,95
2018-04-29T05:41:37.353Z,95
2018-04-29T05:42:38.028Z,95
2018-04-29T05:43:38.703Z,95
2018-04-29T05:44:39.388Z,100
2018-04-29T05:45:40.068Z,100
2018-04-29T05:46:40.753Z,100
2018-04-29T05:47:41.434Z,100
2018-04-29T05:48:42.110Z,105
2018-04-29T05:49:42.784Z,105
2018-04-29T05:50:43.462Z,105
2018-04-29T05:51:44.140Z,105
2018-04-29T05:52:44.819Z,105
2018-04-29T05:53:45.497Z,110
2018-04-29T05:54:46.173Z,110
2018-04-29T05:55:46.850Z,110
2018-04-29T05:56:47.527Z,105
2018-04-29T05:57:48.205Z,110
2018-04-29T05:58:48.880Z,110
2018-04-29T05:59:49.576Z,105
2018-04-29T06:00:50.247Z,105
2018-04-29T06:01:50.925Z,110
2018-04-29T06:02:51.608Z,110
2018-04-29T06:03:52.283Z,110
2018-04-29T06:04:52.967Z,105
2018-04-29T06:05:53.642Z,105
2018-04-29T06:06:54.327Z,105
2018-04-29T06:07:55.011Z,105
2018-04-29T06:08:55.695Z,105
2018-04-29T06:09:56.372Z,105
2018-04-29T06:10:57.049Z,105
2018-04-29T06:11:57.733Z,105
2018-04-29T06:12:58.413Z,105
2018-04-29T06:13:59.100Z,105
2018-04-29T06:14:59.772Z,105
2018-04-29T06:16:00.452Z,105
2018-04-29T06:17:01.128Z,105
2018-04-29T06:18:01.805Z,105
2018-04-29T06:19:02.487Z,105
2018-04-29T06:20:03.165Z,105
2018-04-29T06:21:03.849Z,100
2018-04-29T06:22:04.524Z,100
2018-04-29T06:23:05.206Z,100
2018-04-29T06:24:05.883Z,100
2018-04-29T06:25:06.568Z,100
2018-04-29T06:26:07.271Z,100
2018-04-29T06:27:07.916Z,95
2018-04-29T06:28:08.599Z,95
2018-04-29T06:29:09.279Z,95
2018-04-29T06:30:09.957Z,90
2018-04-29T06:31:10.640Z,95
2018-04-29T06:32:11.320Z,95
2018-04-29T06:33:11.999Z,95
2018-04-29T06:34:12.677Z,90
2018-04-29T06:35:13.354Z,95
2018-04-29T06:36:14.031Z,95
2018-04-29T06:37:14.716Z,90
2018-04-29T06:38:15.394Z,95
2018-04-29T06:39:16.074Z,95
2018-04-29T06:40:16.755Z,95
2018-04-29T06:41:17.437Z,95
2018-04-29T06:42:18.112Z,95
2018-04-29T06:43:18.787Z,95
2018-04-29T06:44:19.464Z,95
2018-04-29T06:45:20.147Z,95
2018-04-29T06:46:20.824Z,95
2018-04-29T06:47:21.504Z,95
2018-04-29T06:48:22.180Z,95
2018-04-29T06:49:22.857Z,95
2018-04-29T06:50:23.531Z,95
2018-04-29T06:51:24.222Z,95
2018-04-29T06:52:24.898Z,95
2018-04-29T06:53:25.600Z,95
2018-04-29T06:54:26.259Z,95
2018-04-29T06:55:26.951Z,95
2018-04-29T06:56:27.636Z,95
2018-04-29T06:57:28.318Z,95
2018-04-29T06:58:28.993Z,95
2018-04-29T06:59:29.670Z,95
2018-04-29T07:00:30.347Z,95
2018-04-29T07:01:31.023Z,95
2018-04-29T07:02:31.712Z,95
2018-04-29T07:03:32.398Z,95
2018-04-29T07:04:33.079Z,95
2018-04-29T07:05:33.757Z,95
2018-04-29T07:06:34.437Z,95
2018-04-29T07:07:35.116Z,95
2018-04-29T07:08:35.793Z,95
2018-04-29T07:09:36.475Z,100
2018-04-29T07:10:37.151Z,100
2018-04-29T07:11:37.829Z,100
2018-04-29T07:12:38.510Z,100
2018-04-29T07:13:39.185Z,100
2018-04-29T07:14:39.859Z,100
2018-04-29T07:15:40.548Z,100
2018-04-29T07:16:41.225Z,100
2018-04-29T07:17:42.005Z,100
2018-04-29T07:18:42.689Z,100
2018-04-29T07:19:43.371Z,100
2018-04-29T07:20:44.053Z,100
2018-04-29T07:21:44.735Z,100
2018-04-29T07:22:45.414Z,100
2018-04-29T07:23:46.101Z,100
2018-04-29T07:24:46.780Z,100
2018-04-29T07:25:47.462Z,100
2018-04-29T07:26:48.141Z,100
2018-04-29T07:27:48.829Z,100
2018-04-29T07:28:49.507Z,100
2018-04-29T07:29:50.188Z,100
2018-04-29T07:30:50.873Z,100
2018-04-29T07:31:51.554Z,100
2018-04-29T07:32:52.234Z,100
2018-04-29T07:33:52.926Z,100
2018-04-29T07:34:53.617Z,100
2018-04-29T07:35:54.296Z,100
2018-04-29T07:36:54.980Z,105
2018-04-29T07:37:55.657Z,105
2018-04-29T07:38:56.337Z,105
2018-04-29T07:39:57.070Z,105
2018-04-29T07:40:57.694Z,105
2018-04-29T07:41:58.383Z,105
2018-04-29T07:42:59.063Z,105
2018-04-29T07:43:59.737Z,105
2018-04-29T07:45:00.370Z,105
2018-04-29T07:46:01.111Z,105
2018-04-29T07:47:01.792Z,105
2018-04-29T07:48:02.469Z,105
2018-04-29T07:49:03.145Z,105
2018-04-29T07:50:03.829Z,105
2018-04-29T07:51:04.511Z,105
2018-04-29T07:52:05.228Z,105
2018-04-29T07:53:05.876Z,105
2018-04-29T07:54:06.558Z,105
2018-04-29T07:55:07.236Z,105
2018-04-29T07:56:07.920Z,105
2018-04-29T07:57:08.610Z,105
2018-04-29T07:58:09.289Z,105
2018-04-29T07:59:09.971Z,105
2018-04-29T08:00:10.653Z,105
2018-04-29T08:01:11.333Z,105
2018-04-29T08:02:12.012Z,105
2018-04-29T08:03:12.708Z,105
2018-04-29T08:04:13.385Z,105
2018-04-29T08:05:14.067Z,105
2018-04-29T08:06:14.748Z,110
2018-04-29T08:07:15.437Z,110
2018-04-29T08:08:16.115Z,110
2018-04-29T08:09:16.804Z,110
2018-04-29T08:10:17.487Z,110
2018-04-29T08:11:18.176Z,110
2018-04-29T08:12:18.855Z,110
2018-04-29T08:13:19.539Z,110
2018-04-29T08:14:20.219Z,110
2018-04-29T08:15:20.971Z,110
2018-04-29T08:16:21.589Z,110
2018-04-29T08:17:22.267Z,110
2018-04-29T08:18:22.945Z,110
2018-04-29T08:19:23.624Z,110
2018-04-29T08:20:24.305Z,110
2018-04-29T08:21:24.987Z,110
2018-04-29T08:22:25.671Z,110
2018-04-29T08:23:26.349Z,110
2018-04-29T08:24:27.026Z,110
2018-04-29T08:25:27.708Z,110
2018-04-29T08:26:28.398Z,110
2018-04-29T08:27:29.089Z,115
2018-04-29T08:28:29.754Z,115
2018-04-29T08:29:30.432Z,115
2018-04-29T08:30:31.111Z,115
2018-04-29T08:31:31.799Z,115
2018-04-29T08:32:32.473Z,115
2018-04-29T08:33:33.153Z,115
2018-04-29T08:34:33.844Z,115
2018-04-29T08:35:34.541Z,115
2018-04-29T08:36:35.226Z,115
2018-04-29T08:37:35.907Z,115
2018-04-29T08:38:36.592Z,115
2018-04-29T08:39:37.278Z,115
2018-04-29T08:40:37.957Z,115
2018-04-29T08:41:38.636Z,115
2018-04-29T08:42:39.325Z,115
2018-04-29T08:43:40.003Z,115
2018-04-29T08:44:40.690Z,115
2018-04-29T08:45:41.375Z,115
2018-04-29T08:46:42.056Z,120
2018-04-29T08:47:42.736Z,120
2018-04-29T08:48:43.415Z,120
2018-04-29T08:49:44.103Z,120
2018-04-29T08:50:44.787Z,120
2018-04-29T08:51:45.466Z,120
2018-04-29T08:52:46.148Z,120
2018-04-29T08:53:46.848Z,120
2018-04-29T08:54:47.526Z,120
2018-04-29T08:55:48.214Z,120
2018-04-29T08:56:48.898Z,120
2018-04-29T08:57:49.579Z,120
2018-04-29T08:58:50.263Z,120
2018-04-29T08:59:50.941Z,120
2018-04-29T09:00:51.625Z,120
2018-04-29T09:01:52.305Z,125
2018-04-29T09:02:52.990Z,125
2018-04-29T09:03:53.775Z,125
2018-04-29T09:04:54.353Z,125
2018-04-29T09:05:55.041Z,125
2018-04-29T09:06:55.720Z,125
2018-04-29T09:07:56.403Z,125
2018-04-29T09:08:57.092Z,125
2018-04-29T09:09:57.773Z,125
2018-04-29T09:10:58.454Z,125
2018-04-29T09:11:59.136Z,125
2018-04-29T09:12:59.811Z,125
2018-04-29T09:14:00.500Z,125
2018-04-29T09:15:01.185Z,125
2018-04-29T09:16:01.867Z,125
2018-04-29T09:17:02.541Z,125
2018-04-29T09:18:03.231Z,125
2018-04-29T09:19:03.908Z,125
2018-04-29T09:20:04.591Z,125
2018-04-29T09:21:05.273Z,125
2018-04-29T09:22:05.956Z,125
2018-04-29T09:23:06.637Z,125
2018-04-29T09:24:07.317Z,125
2018-04-29T09:25:08.007Z,125
2018-04-29T09:26:08.684Z,125
2018-04-29T09:27:09.379Z,130
2018-04-29T09:28:10.060Z,130
2018-04-29T09:29:10.740Z,130
2018-04-29T09:30:11.423Z,130
2018-04-29T09:31:12.124Z,130
2018-04-29T09:32:12.803Z,130
2018-04-29T09:33:13.482Z,130
2018-04-29T09:34:14.163Z,130
2018-04-29T09:35:14.860Z,130
2018-04-29T09:36:15.541Z,130
2018-04-29T09:37:16.256Z,130
2018-04-29T09:38:16.907Z,130
2018-04-29T09:39:17.581Z,130
2018-04-29T09:40:18.260Z,135
2018-04-29T09:41:18.944Z,135
2018-04-29T09:42:19.629Z,140
2018-04-29T09:43:20.315Z,135
2018-04-29T09:44:21.003Z,135
2018-04-29T09:45:21.689Z,135
2018-04-29T09:46:22.368Z,135
2018-04-29T09:47:23.059Z,135
2018-04-29T09:48:23.736Z,135
2018-04-29T09:49:24.423Z,140
2018-04-29T09:50:25.106Z,140
2018-04-29T09:51:25.789Z,140
2018-04-29T09:52:26.470Z,140
2018-04-29T09:53:27.157Z,140
2018-04-29T09:54:27.833Z,140
2018-04-29T09:55:28.517Z,140
2018-04-29T09:56:29.199Z,140
2018-04-29T09:57:29.892Z,140
2018-04-29T09:58:30.571Z,140
2018-04-29T09:59:31.263Z,140
2018-04-29T10:00:31.947Z,140
2018-04-29T10:01:32.636Z,145
2018-04-29T10:02:33.323Z,150
2018-04-29T10:03:34.010Z,145
2018-04-29T10:04:34.719Z,145
2018-04-29T10:05:35.413Z,145
2018-04-29T10:06:36.100Z,145
2018-04-29T10:07:36.791Z,145
2018-04-29T10:08:37.481Z,145
2018-04-29T10:09:38.184Z,145
2018-04-29T10:10:38.838Z,150
2018-04-29T10:11:39.520Z,150
2018-04-29T10:12:40.210Z,150
2018-04-29T10:13:40.891Z,150
2018-04-29T10:14:41.573Z,150
2018-04-29T10:15:42.291Z,150
2018-04-29T10:16:42.971Z,150
2018-04-29T10:17:43.652Z,155
2018-04-29T10:18:44.377Z,155
2018-04-29T10:19:45.018Z,155
2018-04-29T10:20:45.709Z,155
2018-04-29T10:21:46.395Z,155
2018-04-29T10:22:47.098Z,155
2018-04-29T10:23:47.793Z,160
2018-04-29T10:24:48.481Z,160
2018-04-29T10:25:49.180Z,160
2018-04-29T10:26:49.859Z,160
2018-04-29T10:27:50.549Z,160
2018-04-29T10:28:51.231Z,160
2018-04-29T10:29:51.913Z,160
2018-04-29T10:30:52.594Z,165
2018-04-29T10:31:53.276Z,165
2018-04-29T10:32:53.983Z,165
2018-04-29T10:33:54.652Z,165
2018-04-29T10:34:55.341Z,165
2018-04-29T10:35:56.029Z,165
2018-04-29T10:36:56.725Z,165
2018-04-29T10:37:57.414Z,165
2018-04-29T10:38:58.110Z,170
2018-04-29T10:39:58.791Z,170
2018-04-29T10:40:59.499Z,170
2018-04-29T10:42:00.160Z,170
2018-04-29T10:43:00.841Z,170
2018-04-29T10:44:01.533Z,170
2018-04-29T10:45:02.261Z,175
2018-04-29T10:46:03.013Z,175
2018-04-29T10:47:03.696Z,175
2018-04-29T10:48:04.388Z,180
2018-04-29T10:49:05.069Z,180
2018-04-29T10:50:05.755Z,180
2018-04-29T10:51:06.455Z,180
2018-04-29T10:52:07.148Z,185
2018-04-29T10:53:07.841Z,185
2018-04-29T10:54:08.536Z,185
2018-04-29T10:55:09.213Z,190
2018-04-29T10:56:09.895Z,190
2018-04-29T10:57:10.576Z,190
2018-04-29T10:58:11.255Z,190
2018-04-29T10:59:11.938Z,195
2018-04-29T11:00:12.622Z,195
2018-04-29T11:01:13.304Z,190
2018-04-29T11:02:13.979Z,195
2018-04-29T11:03:14.666Z,195
2018-04-29T11:04:15.354Z,195
2018-04-29T11:05:16.041Z,200
2018-04-29T11:06:16.722Z,200
2018-04-29T11:07:17.405Z,200
2018-04-29T11:08:18.090Z,205
2018-04-29T11:09:18.772Z,205
2018-04-29T11:10:19.455Z,205
2018-04-29T11:11:20.143Z,210
2018-04-29T11:12:20.825Z,210
2018-04-29T11:13:21.507Z,215
2018-04-29T11:14:22.199Z,215
2018-04-29T11:15:22.888Z,215
2018-04-29T11:16:23.638Z,220
2018-04-29T11:17:24.256Z,220
2018-04-29T11:18:24.937Z,220
2018-04-29T11:19:25.638Z,225
2018-04-29T11:20:26.324Z,225
2018-04-29T11:21:27.003Z,230
2018-04-29T11:22:27.698Z,235
2018-04-29T11:23:28.371Z,235
2018-04-29T11:24:29.050Z,240
2018-04-29T11:25:29.744Z,240
2018-04-29T11:26:30.438Z,245
2018-04-29T11:27:31.118Z,245
2018-04-29T11:28:31.808Z,245
2018-04-29T11:29:32.491Z,250
2018-04-29T11:30:33.179Z,440
2018-04-29T11:31:33.871Z,2255
2018-04-29T11:32:34.563Z,3630
2018-04-29T11:33:35.253Z,3480
2018-04-29T11:34:35.962Z,3495
2018-04-29T11:35:37.377Z,3440
2018-04-29T11:36:38.062Z,3410
2018-04-29T11:37:38.750Z,3310
2018-04-29T11:38:39.435Z,3270
2018-04-29T11:39:40.132Z,3270
2018-04-29T11:40:41.368Z,3220
2018-04-29T11:41:42.050Z,3165
2018-04-29T11:42:42.734Z,3160
2018-04-29T11:43:43.444Z,3115
2018-04-29T11:44:44.134Z,2935
2018-04-29T11:45:44.822Z,2830
2018-04-29T11:46:45.512Z,2705
2018-04-29T11:47:46.208Z,2560
2018-04-29T11:48:46.923Z,2385
2018-04-29T11:49:47.620Z,2280
2018-04-29T11:50:48.316Z,2190
2018-04-29T11:51:49.001Z,2210
2018-04-29T11:52:49.687Z,2125
2018-04-29T11:53:50.374Z,2065
2018-04-29T11:54:51.063Z,2020
2018-04-29T11:55:51.750Z,1955
2018-04-29T11:56:52.512Z,1855
2018-04-29T11:57:53.126Z,1760
2018-04-29T11:58:53.813Z,1645
2018-04-29T11:59:54.503Z,1500
2018-04-29T12:00:55.187Z,1350
2018-04-29T12:01:55.942Z,1190
2018-04-29T12:02:56.570Z,1065
2018-04-29T12:03:57.264Z,955
2018-04-29T12:04:57.943Z,850
2018-04-29T12:05:58.635Z,755
2018-04-29T12:06:59.326Z,630
2018-04-29T12:08:00.026Z,400
2018-04-29T12:09:00.715Z,340
2018-04-29T12:10:01.405Z,345
2018-04-29T12:11:02.091Z,345
2018-04-29T12:12:02.778Z,340
2018-04-29T12:13:03.475Z,345
2018-04-29T12:14:04.157Z,360
2018-04-29T12:15:04.841Z,365
2018-04-29T12:16:05.527Z,370
2018-04-29T12:17:06.209Z,365
2018-04-29T12:18:06.898Z,365
2018-04-29T12:19:07.581Z,370
2018-04-29T12:20:08.267Z,370
2018-04-29T12:21:08.957Z,370
2018-04-29T12:22:09.655Z,370
2018-04-29T12:23:10.332Z,375
2018-04-29T12:24:11.020Z,375
2018-04-29T12:25:11.706Z,375
2018-04-29T12:26:12.406Z,380
2018-04-29T12:27:13.098Z,375
2018-04-29T12:28:13.794Z,380
2018-04-29T12:29:14.493Z,375
2018-04-29T12:30:15.191Z,375
2018-04-29T12:31:15.875Z,375
2018-04-29T12:32:16.560Z,375
2018-04-29T12:33:17.242Z,375
2018-04-29T12:34:17.935Z,375
2018-04-29T12:35:18.616Z,375
2018-04-29T12:36:19.302Z,375
2018-04-29T12:37:20.004Z,375
2018-04-29T12:38:20.715Z,380
2018-04-29T12:39:21.400Z,380
2018-04-29T12:40:22.084Z,375
2018-04-29T12:41:22.771Z,380
2018-04-29T12:42:23.461Z,380
2018-04-29T12:43:24.145Z,380
2018-04-29T12:44:24.832Z,380
2018-04-29T12:45:25.525Z,380
2018-04-29T12:46:26.263Z,385
2018-04-29T12:47:26.951Z,385
2018-04-29T12:48:27.638Z,385
2018-04-29T12:49:28.323Z,385
2018-04-29T12:50:29.010Z,385
2018-04-29T12:51:29.693Z,385
2018-04-29T12:52:30.383Z,385
2018-04-29T12:53:31.074Z,385
2018-04-29T12:54:31.764Z,385
2018-04-29T12:55:32.450Z,385
2018-04-29T12:56:33.137Z,390
2018-04-29T12:57:33.822Z,385
2018-04-29T12:58:34.508Z,385
2018-04-29T12:59:35.201Z,385
2018-04-29T13:00:35.888Z,385
2018-04-29T13:01:36.586Z,390
2018-04-29T13:02:37.273Z,395
2018-04-29T13:03:37.959Z,395
2018-04-29T13:04:38.649Z,395
2018-04-29T13:05:39.347Z,395
2018-04-29T13:06:40.022Z,400
2018-04-29T13:07:40.707Z,400
2018-04-29T13:08:41.396Z,405
2018-04-29T13:09:42.081Z,410
2018-04-29T13:10:42.769Z,405
2018-04-29T13:11:43.470Z,410
2018-04-29T13:12:44.155Z,415
2018-04-29T13:13:44.843Z,410
2018-04-29T13:14:45.531Z,410
2018-04-29T13:15:46.219Z,410
2018-04-29T13:16:46.915Z,410
2018-04-29T13:17:47.609Z,415
2018-04-29T13:18:48.296Z,415
2018-04-29T13:19:48.991Z,420
2018-04-29T13:20:49.682Z,420
2018-04-29T13:21:50.472Z,425
2018-04-29T13:22:51.067Z,435
2018-04-29T13:23:51.757Z,1060
2018-04-29T13:24:52.444Z,2505
2018-04-29T13:25:53.148Z,3130
2018-04-29T13:26:53.837Z,3085
2018-04-29T13:27:54.525Z,3030
2018-04-29T13:28:55.216Z,3005
2018-04-29T13:29:55.904Z,3010
2018-04-29T13:30:56.598Z,3000
2018-04-29T13:31:57.299Z,3090
2018-04-29T13:32:57.992Z,3045
2018-04-29T13:33:58.684Z,2975
2018-04-29T13:34:59.385Z,2995
2018-04-29T13:36:00.083Z,2875
2018-04-29T13:37:00.779Z,2880
2018-04-29T13:38:01.472Z,2920
2018-04-29T13:39:02.173Z,2875
2018-04-29T13:40:02.874Z,2855
2018-04-29T13:41:03.577Z,2885
2018-04-29T13:42:04.327Z,2970
2018-04-29T13:43:04.970Z,2990
2018-04-29T13:44:05.673Z,3000
2018-04-29T13:45:06.455Z,2930
2018-04-29T13:46:07.068Z,2905
2018-04-29T13:47:07.761Z,630
2018-04-29T13:48:08.463Z,2470
2018-04-29T13:49:09.159Z,2830
2018-04-29T13:50:09.861Z,2725
2018-04-29T13:51:10.577Z,2635
2018-04-29T13:52:11.295Z,2565
2018-04-29T13:53:11.977Z,2025
2018-04-29T13:54:12.673Z,2365
2018-04-29T13:55:13.377Z,2220
2018-04-29T13:56:14.083Z,1140
2018-04-29T13:57:14.778Z,2015
2018-04-29T13:58:15.471Z,1030
2018-04-29T13:59:16.167Z,450
2018-04-29T14:00:16.857Z,440
2018-04-29T14:01:17.558Z,570
2018-04-29T14:02:18.255Z,2525
2018-04-29T14:03:18.993Z,2450
2018-04-29T14:04:19.651Z,1975
2018-04-29T14:05:20.345Z,650
2018-04-29T14:06:21.039Z,485
2018-04-29T14:07:21.735Z,460
2018-04-29T14:08:22.450Z,470
2018-04-29T14:09:23.144Z,515
2018-04-29T14:10:23.880Z,545
2018-04-29T14:11:24.555Z,505
2018-04-29T14:12:25.256Z,550
2018-04-29T14:13:25.951Z,545
2018-04-29T14:14:26.643Z,620
2018-04-29T14:15:27.337Z,940